Time;durP1;ratioP1;P1;durP2;ratioP2;P2;SDS_P1;SDS_P2;PMS_P1;PMS_P2;Temp;Humidity;BMP_temperature;BMP_pressure;BME280_temperature;BME280_humidity;BME280_pressure;Samples;Min_cycle;Max_cycle;Signal;HPM_P1;HPM_P2
2022/01/29 00:01:21;;;;;;;4.05;1.48;;;7.10;54.40;;;;;;5039285;28;20518;-78
2022/01/29 00:03:47;;;;;;;2.60;1.38;;;7.30;54.10;;;;;;5053368;28;20116;-79
2022/01/29 00:06:14;;;;;;;3.95;1.42;;;7.30;53.50;;;;;;5037647;28;20022;-92
2022/01/29 00:08:39;;;;;;;3.88;1.40;;;7.60;53.80;;;;;;5038906;28;20032;-92
2022/01/29 00:11:14;;;;;;;3.35;1.63;;;8.10;52.40;;;;;;5053336;28;20053;-79
2022/01/29 00:13:40;;;;;;;4.45;1.80;;;7.90;51.90;;;;;;5038122;28;20068;-93
2022/01/29 00:16:06;;;;;;;4.03;1.35;;;7.90;52.70;;;;;;5039664;28;20103;-90
2022/01/29 00:18:32;;;;;;;4.25;1.50;;;7.90;52.70;;;;;;5037700;28;20025;-80
2022/01/29 00:20:58;;;;;;;3.67;1.42;;;7.90;52.60;;;;;;5038681;28;20089;-81
2022/01/29 00:23:24;;;;;;;5.63;1.65;;;8.00;52.50;;;;;;5038061;28;20551;-79
2022/01/29 00:25:49;;;;;;;3.78;1.60;;;7.40;53.50;;;;;;5037917;28;20483;-79
2022/01/29 00:28:15;;;;;;;4.97;1.55;;;7.40;54.00;;;;;;5037129;28;20365;-83
2022/01/29 00:30:43;;;;;;;3.33;1.40;;;7.50;53.70;;;;;;5038628;28;20041;-79
2022/01/29 00:33:12;;;;;;;3.03;1.52;;;7.30;54.20;;;;;;5036965;28;20024;-81
2022/01/29 00:35:39;;;;;;;4.15;1.40;;;7.30;54.70;;;;;;5037200;28;20072;-79
2022/01/29 00:38:05;;;;;;;4.47;1.40;;;7.30;54.40;;;;;;5036040;28;20109;-80
2022/01/29 00:40:32;;;;;;;4.30;1.63;;;7.10;54.20;;;;;;5036699;28;20501;-83
2022/01/29 00:42:59;;;;;;;5.15;1.55;;;7.00;54.30;;;;;;5035166;28;20026;-79
2022/01/29 00:45:25;;;;;;;3.28;1.50;;;6.50;55.80;;;;;;5036923;28;20025;-79
2022/01/29 00:47:51;;;;;;;5.60;1.40;;;6.40;55.80;;;;;;5037444;28;20074;-88
2022/01/29 00:50:17;;;;;;;3.10;1.40;;;6.50;55.30;;;;;;5053498;28;20086;-80
2022/01/29 00:52:43;;;;;;;8.27;1.77;;;6.50;55.90;;;;;;5054679;28;20128;-81
2022/01/29 00:55:10;;;;;;;4.97;1.70;;;6.70;55.60;;;;;;5053490;28;20449;-78
2022/01/29 00:57:39;;;;;;;4.05;1.60;;;6.80;55.60;;;;;;5037438;28;20408;-94
2022/01/29 01:00:08;;;;;;;3.75;1.60;;;6.80;55.20;;;;;;5053483;28;20499;-87
2022/01/29 01:02:33;;;;;;;5.60;1.90;;;6.70;54.90;;;;;;5054501;28;20032;-91
2022/01/29 01:04:59;;;;;;;5.72;1.77;;;6.60;55.70;;;;;;5037549;28;20022;-78
2022/01/29 01:07:25;;;;;;;5.10;1.85;;;6.40;55.90;;;;;;5039300;28;20047;-92
2022/01/29 01:09:51;;;;;;;5.20;2.20;;;6.60;55.40;;;;;;5053195;28;20078;-79
2022/01/29 01:12:16;;;;;;;4.05;1.83;;;6.80;54.90;;;;;;5038242;28;20439;-78
2022/01/29 01:14:42;;;;;;;4.13;1.83;;;6.50;53.90;;;;;;5037966;28;20022;-91
2022/01/29 01:17:08;;;;;;;4.40;1.63;;;6.40;54.40;;;;;;5038201;28;20037;-79
2022/01/29 01:19:34;;;;;;;3.90;1.65;;;6.10;54.90;;;;;;5052396;28;20021;-93
2022/01/29 01:22:00;;;;;;;5.75;2.78;;;5.70;55.90;;;;;;5037222;28;20076;-81
2022/01/29 01:24:26;;;;;;;3.67;1.52;;;6.00;55.70;;;;;;5036560;28;20499;-80
2022/01/29 01:26:52;;;;;;;5.18;1.65;;;6.40;54.60;;;;;;5037138;28;20083;-91
2022/01/29 01:29:18;;;;;;;4.35;1.88;;;6.40;54.30;;;;;;5036520;28;20026;-79
2022/01/29 01:31:45;;;;;;;7.53;2.20;;;6.60;54.10;;;;;;5037215;28;20124;-79
2022/01/29 01:34:12;;;;;;;5.63;1.50;;;6.40;54.30;;;;;;5051973;28;20096;-79
2022/01/29 01:36:45;;;;;;;4.22;1.75;;;6.40;54.60;;;;;;5035589;28;20124;-90
2022/01/29 01:39:14;;;;;;;5.97;2.13;;;6.40;54.40;;;;;;5036761;28;20021;-91
2022/01/29 01:41:47;;;;;;;3.90;1.85;;;6.40;53.10;;;;;;5035609;28;20380;-80
2022/01/29 01:44:14;;;;;;;7.63;1.80;;;6.60;53.30;;;;;;5037569;28;20028;-78
2022/01/29 01:46:39;;;;;;;6.25;1.88;;;6.80;53.00;;;;;;5035397;28;20028;-79
2022/01/29 01:49:05;;;;;;;5.22;1.80;;;6.50;53.60;;;;;;5035785;28;20047;-89
2022/01/29 01:51:31;;;;;;;6.93;2.33;;;6.70;53.70;;;;;;5034469;28;20034;-90
2022/01/29 01:53:57;;;;;;;6.03;2.05;;;6.80;53.30;;;;;;5036430;28;20102;-84
2022/01/29 01:56:23;;;;;;;6.63;1.77;;;6.80;53.80;;;;;;5035956;28;20033;-79
2022/01/29 01:58:49;;;;;;;6.43;2.10;;;6.90;53.40;;;;;;5035720;28;20025;-78
2022/01/29 02:01:15;;;;;;;4.32;1.75;;;6.90;53.80;;;;;;5036220;28;20487;-84
2022/01/29 02:03:40;;;;;;;6.15;2.13;;;6.60;53.30;;;;;;5051722;28;20036;-93
2022/01/29 02:06:06;;;;;;;4.60;2.00;;;6.60;54.20;;;;;;5037088;28;20109;-78
2022/01/29 02:08:32;;;;;;;5.20;2.25;;;6.90;53.90;;;;;;5035480;28;20029;-94
2022/01/29 02:11:03;;;;;;;7.47;2.05;;;7.20;52.50;;;;;;5035830;28;20045;-78
2022/01/29 02:13:29;;;;;;;6.97;2.58;;;7.10;53.20;;;;;;5037072;28;20022;-78
2022/01/29 02:15:55;;;;;;;4.45;1.73;;;7.20;53.00;;;;;;5037260;28;20025;-81
2022/01/29 02:18:21;;;;;;;5.07;1.80;;;7.10;52.60;;;;;;5051832;28;20080;-84
2022/01/29 02:20:49;;;;;;;6.13;2.20;;;7.10;53.00;;;;;;5034887;28;20067;-78
2022/01/29 02:23:17;;;;;;;5.25;1.77;;;7.10;53.00;;;;;;5052336;28;20029;-78
2022/01/29 02:25:50;;;;;;;5.55;1.70;;;6.90;52.90;;;;;;5035562;28;20435;-78
2022/01/29 02:28:22;;;;;;;4.85;1.80;;;7.30;52.60;;;;;;5038690;28;20492;-94
2022/01/29 02:30:56;;;;;;;4.78;1.80;;;7.60;51.90;;;;;;5037361;28;20041;-91
2022/01/29 02:33:22;;;;;;;4.05;1.60;;;7.70;51.90;;;;;;5035998;28;20025;-80
2022/01/29 02:35:50;;;;;;;5.07;2.00;;;7.50;51.60;;;;;;5036089;28;20051;-78
2022/01/29 02:38:19;;;;;;;5.82;1.80;;;6.90;52.40;;;;;;5036380;28;20039;-87
2022/01/29 02:40:48;;;;;;;4.77;2.00;;;6.80;53.70;;;;;;5034739;28;20461;-79
2022/01/29 02:43:23;;;;;;;6.05;2.13;;;7.30;52.80;;;;;;5035767;28;20024;-78
2022/01/29 02:45:52;;;;;;;5.35;1.70;;;7.60;52.20;;;;;;5035056;28;20029;-83
2022/01/29 02:48:18;;;;;;;5.53;1.70;;;7.70;51.80;;;;;;5050541;28;20468;-87
2022/01/29 02:50:43;;;;;;;8.00;2.08;;;7.60;51.80;;;;;;5033135;28;20033;-79
2022/01/29 02:53:09;;;;;;;7.30;2.08;;;7.50;51.90;;;;;;5034364;28;20120;-78
2022/01/29 02:55:35;;;;;;;7.65;1.90;;;7.50;51.90;;;;;;5034774;28;20059;-78
2022/01/29 02:58:02;;;;;;;5.53;1.80;;;7.10;52.10;;;;;;5036651;28;20052;-92
2022/01/29 03:00:27;;;;;;;5.53;1.90;;;6.90;52.70;;;;;;5035653;28;20064;-88
2022/01/29 03:02:54;;;;;;;5.90;1.85;;;7.30;52.00;;;;;;5036103;28;20444;-78
2022/01/29 03:05:19;;;;;;;5.70;1.95;;;7.10;52.20;;;;;;5035240;28;20018;-79
2022/01/29 03:07:45;;;;;;;3.85;1.70;;;7.30;51.60;;;;;;5035607;28;20032;-78
2022/01/29 03:10:11;;;;;;;7.18;1.90;;;7.30;50.90;;;;;;5036194;28;20033;-79
2022/01/29 03:12:40;;;;;;;3.78;1.90;;;7.50;51.10;;;;;;5035815;28;20045;-79
2022/01/29 03:15:09;;;;;;;5.03;1.80;;;7.70;50.80;;;;;;5035891;28;20543;-78
2022/01/29 03:17:35;;;;;;;3.50;1.65;;;7.70;50.60;;;;;;5035957;28;20024;-79
2022/01/29 03:20:01;;;;;;;5.28;1.83;;;7.80;50.70;;;;;;5033452;28;20029;-91
2022/01/29 03:22:27;;;;;;;5.45;1.77;;;7.70;50.50;;;;;;5034974;28;20087;-80
2022/01/29 03:24:52;;;;;;;3.17;1.75;;;7.70;50.20;;;;;;5035740;28;20026;-78
2022/01/29 03:27:18;;;;;;;5.15;1.70;;;7.70;50.50;;;;;;5053489;28;20029;-79
2022/01/29 03:29:44;;;;;;;5.82;2.13;;;8.00;49.70;;;;;;5034923;28;20071;-80
2022/01/29 03:32:10;;;;;;;4.18;1.70;;;7.80;50.20;;;;;;5051036;28;20047;-78
2022/01/29 03:34:35;;;;;;;4.78;1.67;;;7.70;49.90;;;;;;5033696;28;20064;-87
2022/01/29 03:37:02;;;;;;;5.03;1.67;;;7.40;50.40;;;;;;5033983;28;20093;-79
2022/01/29 03:39:28;;;;;;;4.63;1.60;;;7.60;50.30;;;;;;5049675;28;20487;-80
2022/01/29 03:42:00;;;;;;;4.95;2.00;;;7.50;51.00;;;;;;5034958;28;20361;-78
2022/01/29 03:44:25;;;;;;;4.97;1.95;;;7.80;49.90;;;;;;5035107;28;20018;-80
2022/01/29 03:46:51;;;;;;;5.68;1.60;;;7.80;49.90;;;;;;5035059;28;20030;-78
2022/01/29 03:49:17;;;;;;;7.07;1.90;;;7.50;50.00;;;;;;5034258;28;20067;-79
2022/01/29 03:51:42;;;;;;;5.32;1.98;;;7.70;50.10;;;;;;5035306;28;20037;-78
2022/01/29 03:54:08;;;;;;;7.22;1.98;;;7.30;50.40;;;;;;5037329;28;20060;-88
2022/01/29 03:56:34;;;;;;;5.80;1.88;;;7.80;49.90;;;;;;5051332;28;20030;-78
2022/01/29 03:59:00;;;;;;;5.13;1.75;;;8.10;49.40;;;;;;5035619;28;20021;-78
2022/01/29 04:01:25;;;;;;;6.00;1.80;;;8.30;49.10;;;;;;5035008;28;20037;-78
2022/01/29 04:03:51;;;;;;;4.55;1.58;;;8.30;49.20;;;;;;5049482;28;20030;-79
2022/01/29 04:06:17;;;;;;;5.18;1.75;;;8.00;50.00;;;;;;5035315;28;20033;-81
2022/01/29 04:08:43;;;;;;;4.82;1.70;;;7.70;48.90;;;;;;5033342;28;20404;-81
2022/01/29 04:11:12;;;;;;;6.03;1.90;;;7.30;50.90;;;;;;5034411;28;20047;-94
2022/01/29 04:13:44;;;;;;;5.82;1.63;;;7.90;50.30;;;;;;5052625;28;20022;-78
2022/01/29 04:16:15;;;;;;;6.00;1.73;;;8.60;48.70;;;;;;5039271;28;20020;-78
2022/01/29 04:18:40;;;;;;;5.32;1.83;;;8.00;48.30;;;;;;5038878;28;20164;-78
2022/01/29 04:21:07;;;;;;;5.05;1.80;;;7.50;50.20;;;;;;5053003;28;20038;-82
2022/01/29 04:23:34;;;;;;;3.20;1.50;;;7.90;49.60;;;;;;5039313;28;20476;-83
2022/01/29 04:26:01;;;;;;;4.95;1.60;;;8.30;49.10;;;;;;5040012;28;20014;-84
2022/01/29 04:28:31;;;;;;;3.53;1.60;;;8.60;47.80;;;;;;5039038;28;20569;-78
2022/01/29 04:31:01;;;;;;;;;;;8.80;47.10;;;;;;5038079;28;20041;-78
2022/01/29 04:33:30;;;;;;;3.63;1.42;;;8.90;46.60;;;;;;5037624;28;19905;-77
2022/01/29 04:36:03;;;;;;;3.28;1.50;;;8.50;46.70;;;;;;5038038;28;20029;-81
2022/01/29 04:38:31;;;;;;;4.32;1.50;;;8.10;47.10;;;;;;5038263;28;20357;-85
2022/01/29 04:41:04;;;;;;;3.53;1.50;;;8.20;47.10;;;;;;5037986;28;20388;-79
2022/01/29 04:43:34;;;;;;;3.63;1.40;;;8.70;46.80;;;;;;5052862;28;20599;-79
2022/01/29 04:46:00;;;;;;;4.28;1.50;;;8.90;46.20;;;;;;5052636;28;20075;-78
2022/01/29 04:48:27;;;;;;;5.28;1.50;;;8.30;45.20;;;;;;5039516;28;20384;-79
2022/01/29 04:50:54;;;;;;;4.53;1.50;;;8.30;46.50;;;;;;5054188;28;20484;-79
2022/01/29 04:53:20;;;;;;;5.20;1.55;;;8.50;46.60;;;;;;5037575;28;20032;-93
2022/01/29 04:55:45;;;;;;;5.05;1.45;;;8.80;45.50;;;;;;5053331;28;20033;-79
2022/01/29 04:58:11;;;;;;;6.10;1.70;;;9.10;45.60;;;;;;5036888;28;20022;-78
2022/01/29 05:00:37;;;;;;;4.55;1.60;;;9.20;45.80;;;;;;5038270;28;20025;-78
2022/01/29 05:03:11;;;;;;;4.00;1.50;;;9.30;45.20;;;;;;5038148;28;20021;-79
2022/01/29 05:05:39;;;;;;;3.20;1.30;;;9.40;45.00;;;;;;5039303;28;20029;-79
2022/01/29 05:08:06;;;;;;;4.95;1.52;;;9.30;44.60;;;;;;5037781;28;20032;-79
2022/01/29 05:10:33;;;;;;;5.50;1.90;;;9.30;45.00;;;;;;5036397;28;20088;-79
2022/01/29 05:13:05;;;;;;;3.60;1.50;;;9.00;46.00;;;;;;5037350;28;20025;-79
2022/01/29 05:28:58;;;;;;;4.35;1.50;;;9.40;45.60;;;;;;5036386;28;20511;-79
2022/01/29 05:31:23;;;;;;;4.40;1.80;;;9.50;44.20;;;;;;5036584;28;20064;-93
2022/01/29 05:33:49;;;;;;;3.70;1.55;;;9.20;44.50;;;;;;5035627;28;20083;-79
2022/01/29 05:36:15;;;;;;;4.70;1.75;;;9.20;44.90;;;;;;5036558;28;20116;-79
2022/01/29 05:38:40;;;;;;;6.03;1.70;;;9.40;44.50;;;;;;5036030;28;20028;-79
2022/01/29 05:41:06;;;;;;;4.35;1.80;;;9.20;44.90;;;;;;5051461;28;20029;-79
2022/01/29 05:43:32;;;;;;;3.83;1.48;;;9.10;45.20;;;;;;5034946;28;20022;-91
2022/01/29 05:45:58;;;;;;;6.00;1.80;;;9.30;44.80;;;;;;5035953;28;20037;-79
2022/01/29 05:48:24;;;;;;;5.55;1.67;;;9.10;44.80;;;;;;5035964;28;20036;-88
2022/01/29 05:50:50;;;;;;;3.78;1.40;;;8.50;45.40;;;;;;5035583;28;20481;-86
2022/01/29 05:53:15;;;;;;;7.22;1.95;;;8.60;46.00;;;;;;5035274;28;20613;-80
2022/01/29 05:55:41;;;;;;;5.85;2.03;;;8.60;45.70;;;;;;5050819;28;20036;-78
2022/01/29 05:58:07;;;;;;;6.95;2.20;;;8.30;46.90;;;;;;5035790;28;20075;-80
2022/01/29 06:00:33;;;;;;;6.43;1.80;;;8.40;46.80;;;;;;5035317;28;20026;-79
2022/01/29 06:03:09;;;;;;;4.90;2.00;;;8.50;46.50;;;;;;5035907;28;20037;-79
2022/01/29 06:05:36;;;;;;;8.50;3.05;;;7.80;46.80;;;;;;5034986;28;20396;-79
2022/01/29 06:08:02;;;;;;;26.63;8.43;;;7.70;47.20;;;;;;5035754;28;20476;-89
2022/01/29 06:10:28;;;;;;;38.53;13.55;;;7.90;47.10;;;;;;5034932;28;20100;-90
2022/01/29 06:13:04;;;;;;;31.10;9.88;;;7.90;47.20;;;;;;5051033;28;20408;-80
2022/01/29 06:15:32;;;;;;;16.75;7.32;;;8.10;47.10;;;;;;5050517;28;20052;-91
2022/01/29 06:17:58;;;;;;;8.05;3.90;;;8.20;46.60;;;;;;5035622;28;20388;-84
2022/01/29 06:20:25;;;;;;;9.18;4.63;;;8.20;46.40;;;;;;4336158;28;10000689;-79
2022/01/29 06:22:51;;;;;;;13.93;3.58;;;8.20;46.90;;;;;;5032676;28;20037;-83
2022/01/29 06:25:17;;;;;;;6.05;2.22;;;8.40;47.00;;;;;;5032830;28;20029;-79
2022/01/29 06:27:43;;;;;;;3.60;1.80;;;8.40;46.50;;;;;;5032446;28;20033;-78
2022/01/29 06:30:09;;;;;;;6.07;2.40;;;8.50;46.30;;;;;;5031095;28;20036;-79
2022/01/29 06:32:35;;;;;;;10.40;4.78;;;8.50;45.50;;;;;;5030846;28;20038;-79
2022/01/29 06:35:01;;;;;;;34.95;12.50;;;8.50;45.60;;;;;;5031907;28;20022;-78
2022/01/29 06:37:29;;;;;;;10.23;4.20;;;8.60;45.60;;;;;;5046336;28;20035;-78
2022/01/29 06:39:55;;;;;;;20.98;8.02;;;8.60;45.60;;;;;;5031290;28;20025;-78
2022/01/29 06:42:21;;;;;;;14.10;5.20;;;9.00;45.40;;;;;;5030063;28;20033;-80
2022/01/29 06:44:46;;;;;;;17.95;7.25;;;8.90;45.30;;;;;;5031489;28;20021;-78
2022/01/29 06:47:12;;;;;;;9.00;3.55;;;9.10;45.70;;;;;;5031741;28;20033;-80
2022/01/29 06:49:39;;;;;;;13.25;5.68;;;9.00;44.90;;;;;;5032726;28;20021;-80
2022/01/29 06:52:05;;;;;;;10.02;4.30;;;8.80;45.10;;;;;;5031527;28;20080;-79
2022/01/29 06:54:32;;;;;;;13.10;4.88;;;8.80;45.80;;;;;;5031472;28;20034;-89
2022/01/29 06:56:57;;;;;;;6.22;3.05;;;8.90;45.30;;;;;;5033102;28;20048;-79
2022/01/29 06:59:23;;;;;;;9.95;4.70;;;9.10;45.90;;;;;;5033749;28;20029;-91
2022/01/29 07:01:48;;;;;;;11.52;4.80;;;8.60;45.90;;;;;;5032527;28;20120;-79
2022/01/29 07:04:14;;;;;;;12.32;5.63;;;8.30;47.00;;;;;;5032350;28;20052;-91
2022/01/29 07:06:40;;;;;;;11.85;5.93;;;8.70;46.80;;;;;;5031726;28;20052;-81
2022/01/29 07:09:06;;;;;;;11.15;5.55;;;8.60;46.40;;;;;;5031711;28;20045;-79
2022/01/29 07:11:31;;;;;;;9.13;4.03;;;8.30;47.20;;;;;;5032094;28;20131;-78
2022/01/29 07:14:03;;;;;;;15.07;6.32;;;8.30;47.30;;;;;;5032433;28;20032;-88
2022/01/29 07:16:32;;;;;;;11.93;5.50;;;8.40;47.30;;;;;;5032450;28;20025;-80
2022/01/29 07:18:58;;;;;;;10.60;4.03;;;8.50;47.50;;;;;;5014712;28;20029;-82
2022/01/29 07:21:24;;;;;;;10.73;4.43;;;8.60;47.40;;;;;;5031997;28;20480;-80
2022/01/29 07:23:50;;;;;;;11.63;4.93;;;7.80;49.40;;;;;;5029739;28;20125;-79
2022/01/29 07:26:15;;;;;;;8.98;4.25;;;7.80;50.20;;;;;;5061652;28;20402;-78
2022/01/29 07:28:41;;;;;;;10.77;3.40;;;8.20;49.90;;;;;;5071704;28;20041;-86
2022/01/29 07:31:07;;;;;;;7.70;3.67;;;7.80;50.70;;;;;;5071992;28;20103;-91
2022/01/29 07:33:33;;;;;;;8.20;3.38;;;7.80;51.30;;;;;;5070811;28;20025;-81
2022/01/29 07:35:59;;;;;;;9.35;3.60;;;7.80;51.50;;;;;;5070553;28;20035;-79
2022/01/29 07:38:25;;;;;;;9.73;3.63;;;7.80;51.60;;;;;;5072438;28;20382;-88
2022/01/29 07:40:52;;;;;;;6.65;3.08;;;7.80;51.80;;;;;;5071712;28;20032;-87
2022/01/29 07:43:18;;;;;;;12.07;3.97;;;8.20;51.20;;;;;;5071364;28;20020;-87
2022/01/29 07:45:44;;;;;;;9.95;2.90;;;8.70;50.70;;;;;;5071712;28;20029;-86
2022/01/29 07:48:10;;;;;;;8.07;2.97;;;8.60;50.50;;;;;;5072674;28;20017;-78
2022/01/29 07:50:36;;;;;;;7.63;3.35;;;8.50;50.20;;;;;;5074556;28;20035;-81
2022/01/29 07:53:01;;;;;;;9.38;3.50;;;8.70;50.40;;;;;;5074663;28;20089;-79
2022/01/29 07:55:31;;;;;;;8.10;3.17;;;9.20;50.00;;;;;;5076213;28;20099;-84
2022/01/29 07:58:01;;;;;;;7.35;2.75;;;9.40;49.40;;;;;;5076732;28;20459;-89
2022/01/29 08:00:28;;;;;;;8.52;3.70;;;10.00;48.30;;;;;;5075950;28;20082;-79
2022/01/29 08:02:54;;;;;;;10.48;3.38;;;9.90;48.40;;;;;;5075483;28;20059;-77
2022/01/29 08:05:19;;;;;;;11.55;3.10;;;9.60;49.00;;;;;;5073952;28;20468;-79
2022/01/29 08:07:45;;;;;;;6.72;3.08;;;9.40;48.90;;;;;;5073799;28;20098;-82
2022/01/29 08:10:11;;;;;;;37.67;28.13;;;8.90;49.60;;;;;;5074555;28;20087;-80
2022/01/29 08:12:36;;;;;;;35.40;23.40;;;9.30;49.50;;;;;;5074765;28;20024;-78
2022/01/29 08:15:06;;;;;;;98.05;87.60;;;9.50;49.30;;;;;;5072902;28;20078;-86
2022/01/29 08:17:32;;;;;;;76.95;68.55;;;9.80;49.10;;;;;;5074403;28;20028;-87
2022/01/29 08:19:58;;;;;;;20.23;14.73;;;9.70;49.00;;;;;;5073890;28;20024;-82
2022/01/29 08:22:24;;;;;;;21.08;15.55;;;9.60;49.00;;;;;;5073774;28;20028;-78
2022/01/29 08:24:50;;;;;;;43.50;26.02;;;9.60;49.70;;;;;;5074008;28;20027;-80
2022/01/29 08:27:16;;;;;;;52.45;30.10;;;9.80;48.80;;;;;;5074223;28;20025;-83
2022/01/29 08:29:42;;;;;;;29.63;23.90;;;9.70;48.40;;;;;;5074146;28;20067;-79
2022/01/29 08:32:08;;;;;;;26.58;23.10;;;9.50;49.00;;;;;;5074007;28;20035;-86
2022/01/29 08:34:34;;;;;;;27.80;18.45;;;9.20;49.60;;;;;;5074177;28;20077;-79
2022/01/29 08:37:04;;;;;;;13.23;6.75;;;9.20;49.50;;;;;;5073760;28;20025;-87
2022/01/29 08:39:30;;;;;;;17.42;13.00;;;9.50;48.90;;;;;;5075098;28;20028;-80
2022/01/29 08:41:56;;;;;;;55.03;49.50;;;9.40;49.10;;;;;;5075910;28;20055;-79
2022/01/29 08:44:22;;;;;;;75.57;61.30;;;9.60;49.10;;;;;;5076279;28;20029;-79
2022/01/29 08:46:48;;;;;;;20.02;11.25;;;9.60;49.10;;;;;;5075776;28;20056;-83
2022/01/29 08:49:13;;;;;;;18.83;12.25;;;9.80;48.20;;;;;;5076838;28;20063;-79
2022/01/29 08:51:39;;;;;;;61.22;46.28;;;9.50;48.60;;;;;;5076517;28;20489;-79
2022/01/29 08:54:05;;;;;;;13.30;6.35;;;9.70;48.40;;;;;;5076759;28;20103;-79
2022/01/29 08:56:31;;;;;;;19.02;10.82;;;9.40;48.60;;;;;;5076248;28;20029;-82
2022/01/29 08:58:56;;;;;;;15.40;9.43;;;10.10;48.40;;;;;;5076029;28;20042;-79
2022/01/29 09:01:22;;;;;;;13.60;7.25;;;11.60;46.50;;;;;;5074925;28;20036;-79
2022/01/29 09:03:48;;;;;;;16.00;6.47;;;13.30;44.40;;;;;;5076530;28;20016;-80
2022/01/29 09:06:14;;;;;;;15.13;6.28;;;13.30;42.70;;;;;;5076298;28;20383;-80
2022/01/29 09:08:40;;;;;;;17.92;6.60;;;12.20;44.10;;;;;;5076656;28;20339;-80
2022/01/29 09:11:07;;;;;;;15.85;9.88;;;11.50;45.50;;;;;;5076166;28;20052;-81
2022/01/29 09:13:33;;;;;;;14.82;7.03;;;10.90;46.10;;;;;;5074983;28;20108;-81
2022/01/29 09:15:59;;;;;;;19.00;7.18;;;10.60;46.60;;;;;;5076493;28;20107;-81
2022/01/29 09:18:25;;;;;;;9.10;4.72;;;11.80;46.30;;;;;;5076433;28;20016;-78
2022/01/29 09:20:51;;;;;;;15.15;7.82;;;13.20;44.20;;;;;;5075900;28;20021;-80
2022/01/29 09:23:18;;;;;;;33.22;21.98;;;15.50;41.20;;;;;;5074860;28;20031;-79
2022/01/29 09:25:44;;;;;;;22.30;13.43;;;16.20;40.10;;;;;;5076169;28;20068;-79
2022/01/29 09:28:12;;;;;;;18.80;11.27;;;16.10;39.70;;;;;;5074613;28;20100;-79
2022/01/29 09:30:38;;;;;;;30.80;20.10;;;15.00;41.40;;;;;;5074782;28;20025;-79
2022/01/29 09:33:03;;;;;;;11.52;6.70;;;15.00;41.80;;;;;;5075773;28;20083;-78
2022/01/29 09:35:30;;;;;;;12.02;5.57;;;15.50;41.00;;;;;;5076120;28;20052;-79
2022/01/29 09:37:56;;;;;;;10.85;4.72;;;14.60;41.30;;;;;;5075869;28;20364;-82
2022/01/29 09:40:22;;;;;;;13.55;6.60;;;13.30;42.90;;;;;;5076042;28;20525;-82
2022/01/29 09:42:50;;;;;;;13.02;6.72;;;12.40;44.40;;;;;;5075923;28;20031;-78
2022/01/29 09:45:19;;;;;;;14.13;6.75;;;11.40;45.40;;;;;;5074535;28;20020;-78
2022/01/29 09:47:47;;;;;;;14.77;5.65;;;10.80;47.30;;;;;;5075662;28;20028;-79
2022/01/29 09:50:14;;;;;;;13.15;5.05;;;10.90;47.40;;;;;;5075490;28;20360;-78
2022/01/29 09:52:41;;;;;;;11.88;4.57;;;10.80;47.00;;;;;;5074782;28;20086;-79
2022/01/29 09:55:08;;;;;;;15.00;8.57;;;10.80;46.90;;;;;;5060063;28;20071;-83
2022/01/29 09:57:34;;;;;;;37.05;23.15;;;11.20;47.30;;;;;;5055878;28;20103;-78
2022/01/29 10:00:00;;;;;;;77.32;57.40;;;11.30;46.20;;;;;;5065553;28;20097;-82
2022/01/29 10:02:26;;;;;;;104.35;84.15;;;11.40;46.60;;;;;;5054724;28;20037;-82
2022/01/29 10:04:54;;;;;;;59.55;36.15;;;10.90;46.80;;;;;;5054069;28;20040;-79
2022/01/29 10:07:25;;;;;;;157.73;87.40;;;10.70;47.80;;;;;;5055442;28;20029;-78
2022/01/29 10:09:52;;;;;;;49.83;25.25;;;10.40;47.50;;;;;;5065597;28;20017;-79
2022/01/29 10:12:24;;;;;;;20.13;9.00;;;10.20;48.50;;;;;;5053071;28;20041;-79
2022/01/29 10:14:52;;;;;;;89.30;76.28;;;10.80;48.10;;;;;;5060336;28;20020;-83
2022/01/29 10:17:44;;;;;;;17.65;9.18;;;11.10;47.30;;;;;;5070756;28;20033;-89
2022/01/29 10:20:30;;;;;;;96.65;75.43;;;11.50;47.10;;;;;;5075156;28;20052;-78
2022/01/29 10:23:01;;;;;;;36.03;25.40;;;11.30;47.00;;;;;;5073176;28;20265;-88
2022/01/29 10:25:36;;;;;;;12.88;5.13;;;11.60;47.00;;;;;;5055774;28;20060;-77
2022/01/29 10:28:18;;;;;;;14.20;5.45;;;11.90;46.30;;;;;;5055187;28;20028;-90
2022/01/29 10:30:50;;;;;;;13.38;5.25;;;11.70;46.30;;;;;;5054139;28;20079;-78
2022/01/29 10:33:23;;;;;;;32.53;16.27;;;11.80;46.50;;;;;;5058253;28;20099;-77
2022/01/29 10:35:53;;;;;;;16.17;9.13;;;11.90;46.80;;;;;;5064532;28;20028;-91
2022/01/29 10:38:27;;;;;;;15.98;8.30;;;12.40;45.80;;;;;;4348853;28;10000637;-83
2022/01/29 10:41:12;;;;;;;21.95;11.63;;;12.80;45.10;;;;;;5039557;28;20029;-78
2022/01/29 10:44:02;;;;;;;18.88;8.38;;;12.00;45.70;;;;;;5052121;28;20031;-77
2022/01/29 10:46:32;;;;;;;20.40;11.33;;;11.60;46.20;;;;;;5056172;28;20025;-84
2022/01/29 10:48:59;;;;;;;33.30;22.33;;;11.50;46.70;;;;;;5033753;28;20025;-87
2022/01/29 10:51:26;;;;;;;25.30;11.65;;;11.70;46.60;;;;;;5036479;28;20377;-79
2022/01/29 10:53:53;;;;;;;15.95;6.32;;;11.70;46.80;;;;;;5035148;28;20028;-84
2022/01/29 10:56:20;;;;;;;47.92;34.17;;;11.90;46.60;;;;;;5034725;28;20357;-81
2022/01/29 10:58:47;;;;;;;16.45;9.38;;;12.20;46.00;;;;;;5034791;28;20025;-83
2022/01/29 11:01:15;;;;;;;13.70;5.50;;;11.70;46.50;;;;;;5053167;28;20490;-80
2022/01/29 11:03:42;;;;;;;17.88;7.72;;;11.00;47.60;;;;;;5053618;28;20480;-79
2022/01/29 11:06:13;;;;;;;19.98;8.05;;;11.20;48.40;;;;;;5054641;28;20124;-87
2022/01/29 11:08:40;;;;;;;20.50;12.10;;;11.20;47.50;;;;;;5055089;28;20052;-80
2022/01/29 11:11:10;;;;;;;21.75;9.85;;;11.20;48.00;;;;;;5054120;28;20052;-80
2022/01/29 11:13:36;;;;;;;18.45;12.63;;;10.90;48.30;;;;;;5068970;28;20024;-81
2022/01/29 11:16:03;;;;;;;23.70;12.20;;;10.90;48.50;;;;;;5073545;28;20052;-81
2022/01/29 11:18:34;;;;;;;21.23;11.77;;;11.10;48.70;;;;;;5057562;28;20021;-78
2022/01/29 11:21:01;;;;;;;;;;;11.10;48.70;;;;;;5051087;28;20025;-85
2022/01/29 11:23:28;;;;;;;16.42;9.50;;;11.00;49.00;;;;;;5050841;28;20263;-81
2022/01/29 11:25:55;;;;;;;15.77;6.90;;;11.30;48.60;;;;;;5050800;28;20037;-78
2022/01/29 11:28:23;;;;;;;15.63;6.57;;;11.30;48.80;;;;;;5051475;28;20047;-80
2022/01/29 11:31:12;;;;;;;28.02;15.30;;;11.80;48.10;;;;;;5057775;28;20119;-78
2022/01/29 11:33:57;;;;;;;85.60;39.13;;;11.30;48.40;;;;;;5052185;28;20036;-77
2022/01/29 11:36:43;;;;;;;21.30;8.05;;;11.30;48.90;;;;;;5053001;28;20025;-81
2022/01/29 11:39:19;;;;;;;42.00;22.30;;;10.80;49.70;;;;;;5047321;28;20037;-92
2022/01/29 11:41:45;;;;;;;15.90;6.95;;;11.20;49.40;;;;;;5053176;28;20025;-81
2022/01/29 11:44:27;;;;;;;22.27;8.75;;;11.30;49.40;;;;;;5052249;28;20037;-76
2022/01/29 11:46:53;;;;;;;22.02;7.47;;;10.90;49.70;;;;;;5062401;28;20548;-93
2022/01/29 11:49:21;;;;;;;20.63;10.25;;;11.10;50.20;;;;;;5059232;28;20021;-89
2022/01/29 11:51:49;;;;;;;49.92;28.00;;;11.10;50.00;;;;;;5054786;28;20059;-90
2022/01/29 11:54:27;;;;;;;24.80;10.80;;;10.90;50.30;;;;;;5053061;28;20106;-77
2022/01/29 11:57:11;;;;;;;47.53;26.40;;;11.00;50.30;;;;;;5053045;28;20025;-78
2022/01/29 11:59:38;;;;;;;23.52;13.77;;;11.40;49.90;;;;;;5055856;28;20029;-79
2022/01/29 12:02:24;;;;;;;23.77;15.18;;;10.90;50.40;;;;;;5053368;28;20429;-79
2022/01/29 12:07:26;;;;;;;21.42;8.80;;;11.00;50.90;;;;;;5053453;28;20060;-77
2022/01/29 12:10:12;;;;;;;19.33;10.00;;;11.10;50.30;;;;;;5053515;28;20029;-77
2022/01/29 12:12:43;;;;;;;27.23;17.60;;;11.20;50.40;;;;;;5051128;28;20120;-87
2022/01/29 12:15:08;;;;;;;;;;;11.30;50.30;;;;;;5054661;28;20026;-78
2022/01/29 12:17:36;;;;;;;17.33;7.60;;;11.30;50.10;;;;;;5053148;28;19905;-90
2022/01/29 12:20:04;;;;;;;18.58;7.72;;;11.50;50.20;;;;;;5055330;28;20028;-87
2022/01/29 12:22:34;;;;;;;26.80;8.90;;;11.60;50.30;;;;;;5055314;28;20083;-91
2022/01/29 12:25:01;;;;;;;17.40;6.28;;;11.60;49.80;;;;;;5053935;28;20031;-81
2022/01/29 12:27:45;;;;;;;15.25;5.47;;;11.50;49.70;;;;;;5069613;28;20043;-77
2022/01/29 12:30:14;;;;;;;18.40;7.20;;;11.50;49.60;;;;;;5052579;28;20416;-87
2022/01/29 12:32:40;;;;;;;16.83;6.40;;;11.70;49.60;;;;;;4700127;28;10000225;-77
2022/01/29 12:35:06;;;;;;;17.25;7.15;;;12.00;49.00;;;;;;5073075;28;20456;-80
2022/01/29 12:37:32;;;;;;;19.60;6.57;;;12.40;48.70;;;;;;5074229;28;20029;-79
2022/01/29 12:40:19;;;;;;;16.63;5.90;;;12.70;48.00;;;;;;5073899;28;20035;-81
2022/01/29 12:42:55;;;;;;;17.77;5.40;;;12.80;48.20;;;;;;5060297;28;20040;-78
2022/01/29 12:45:22;;;;;;;12.35;5.50;;;12.60;47.50;;;;;;5052844;28;20092;-76
2022/01/29 12:47:48;;;;;;;13.77;5.97;;;12.50;47.90;;;;;;5053418;28;20139;-76
2022/01/29 12:50:21;;;;;;;15.55;5.30;;;12.60;47.90;;;;;;5052418;28;20037;-91
2022/01/29 12:52:48;;;;;;;26.75;9.70;;;12.60;47.90;;;;;;5053864;28;20028;-76
2022/01/29 12:55:14;;;;;;;22.60;9.57;;;12.70;47.70;;;;;;5052436;28;20029;-77
2022/01/29 12:57:41;;;;;;;147.07;61.83;;;12.70;47.80;;;;;;5052667;28;20029;-76
2022/01/29 13:00:15;;;;;;;62.35;47.13;;;12.60;48.20;;;;;;5050288;28;20029;-77
2022/01/29 13:02:42;;;;;;;24.00;12.00;;;12.50;47.90;;;;;;5057454;28;20083;-76
2022/01/29 13:05:10;;;;;;;38.38;24.13;;;12.50;47.90;;;;;;5052774;28;20036;-77
2022/01/29 13:07:37;;;;;;;49.03;31.85;;;12.80;47.60;;;;;;5053017;28;20166;-76